createdAt,value
2019-05-25T00:01:52.392Z,38.75
2019-05-25T00:04:20.187Z,38.75
2019-05-25T00:06:48.263Z,38.84
2019-05-25T00:09:16.240Z,38.88
2019-05-25T00:11:44.267Z,38.75
2019-05-25T00:14:12.302Z,38.67
2019-05-25T00:16:40.200Z,38.69
2019-05-25T00:19:08.157Z,38.74
2019-05-25T00:21:36.187Z,38.51
2019-05-25T00:24:12.282Z,38.62
2019-05-25T00:26:33.762Z,38.31
2019-05-25T00:29:01.741Z,38.69
2019-05-25T00:31:30.088Z,38.78
2019-05-25T00:33:58.149Z,38.71
2019-05-25T00:36:26.064Z,38.65
2019-05-25T00:38:54.196Z,38.90
2019-05-25T00:41:22.163Z,38.53
2019-05-25T00:43:50.160Z,38.71
2019-05-25T00:46:18.116Z,38.86
2019-05-25T00:48:46.082Z,38.64
2019-05-25T00:51:14.131Z,38.62
2019-05-25T00:53:42.198Z,38.69
2019-05-25T00:56:10.020Z,38.89
2019-05-25T00:58:38.031Z,38.65
2019-05-25T01:01:06.366Z,38.60
2019-05-25T01:03:34.464Z,38.67
2019-05-25T01:06:02.372Z,38.56
2019-05-25T01:08:30.286Z,38.92
2019-05-25T01:10:58.368Z,38.30
2019-05-25T01:13:26.254Z,38.36
2019-05-25T01:15:54.279Z,38.45
2019-05-25T01:18:22.278Z,38.67
2019-05-25T01:20:50.285Z,38.57
2019-05-25T01:23:18.335Z,38.86
2019-05-25T01:25:46.243Z,38.69
2019-05-25T01:28:14.118Z,38.76
2019-05-25T01:30:42.043Z,38.45
2019-05-25T01:33:10.121Z,38.45
2019-05-25T01:35:38.061Z,38.78
2019-05-25T01:38:05.980Z,38.73
2019-05-25T01:40:33.986Z,39.07
2019-05-25T01:43:01.822Z,38.26
2019-05-25T01:45:29.639Z,38.75
2019-05-25T01:47:57.748Z,38.65
2019-05-25T01:50:25.692Z,38.81
2019-05-25T01:52:53.862Z,38.39
2019-05-25T01:55:21.830Z,38.69
2019-05-25T01:57:49.870Z,38.98
2019-05-25T02:00:17.898Z,38.90
2019-05-25T02:02:45.948Z,38.38
2019-05-25T02:05:14.129Z,38.91
2019-05-25T02:07:42.135Z,38.17
2019-05-25T02:10:10.191Z,38.66
2019-05-25T02:12:38.174Z,38.65
2019-05-25T02:15:06.252Z,38.35
2019-05-25T02:17:34.348Z,38.66
2019-05-25T02:20:02.655Z,38.83
2019-05-25T02:22:30.600Z,39.05
2019-05-25T02:25:14.460Z,38.74
2019-05-25T02:27:28.899Z,38.97
2019-05-25T02:29:56.924Z,38.47
2019-05-25T02:32:25.240Z,38.64
2019-05-25T02:34:53.334Z,38.44
2019-05-25T02:37:21.479Z,38.83
2019-05-25T02:39:49.625Z,38.79
2019-05-25T02:42:17.768Z,38.94
2019-05-25T02:44:46.054Z,38.80
2019-05-25T02:47:14.283Z,38.53
2019-05-25T02:49:42.565Z,38.41
2019-05-25T02:52:10.624Z,38.69
2019-05-25T02:54:38.642Z,38.51
2019-05-25T02:57:06.516Z,38.13
2019-05-25T02:59:34.805Z,38.49
2019-05-25T03:02:02.740Z,38.55
2019-05-25T03:04:30.777Z,38.32
2019-05-25T03:06:58.847Z,38.75
2019-05-25T03:09:26.920Z,38.44
2019-05-25T03:11:54.991Z,38.29
2019-05-25T03:14:23.376Z,38.74
2019-05-25T03:16:51.375Z,38.89
2019-05-25T03:19:19.547Z,38.54
2019-05-25T03:21:47.588Z,38.81
2019-05-25T03:24:15.463Z,38.92
2019-05-25T03:26:43.532Z,38.89
2019-05-25T03:29:11.715Z,38.81
2019-05-25T03:31:39.840Z,38.35
2019-05-25T03:34:07.873Z,38.93
2019-05-25T03:36:35.783Z,38.98
2019-05-25T03:39:05.711Z,38.80
2019-05-25T03:41:33.754Z,38.95
2019-05-25T03:44:02.047Z,38.88
2019-05-25T03:46:30.127Z,38.66
2019-05-25T03:48:58.327Z,39.11
2019-05-25T03:51:26.691Z,38.78
2019-05-25T03:53:54.746Z,39.02
2019-05-25T03:56:22.691Z,38.87
2019-05-25T03:58:50.653Z,39.08
2019-05-25T04:01:18.987Z,38.72
2019-05-25T04:03:46.898Z,38.83
2019-05-25T04:06:14.910Z,39.21
2019-05-25T04:08:42.991Z,38.85
2019-05-25T04:11:11.145Z,38.88
2019-05-25T04:13:38.980Z,38.81
2019-05-25T04:16:06.960Z,39.31
2019-05-25T04:18:34.870Z,38.95
2019-05-25T04:21:02.845Z,39.32
2019-05-25T04:23:30.855Z,39.25
2019-05-25T04:25:59.201Z,38.75
2019-05-25T04:28:27.204Z,39.30
2019-05-25T04:30:55.223Z,39.12
2019-05-25T04:33:23.204Z,39.13
2019-05-25T04:35:51.208Z,38.73
2019-05-25T04:38:19.116Z,38.67
2019-05-25T04:40:47.283Z,38.76
2019-05-25T04:43:15.440Z,38.65
2019-05-25T04:45:43.448Z,38.88
2019-05-25T04:48:11.326Z,39.01
2019-05-25T04:50:39.632Z,39.09
2019-05-25T04:53:07.657Z,38.97
2019-05-25T04:55:35.638Z,38.86
2019-05-25T04:58:03.569Z,38.99
2019-05-25T05:00:31.490Z,38.93
2019-05-25T05:02:59.438Z,38.69
2019-05-25T05:05:27.460Z,39.16
2019-05-25T05:07:55.350Z,39.34
2019-05-25T05:10:23.315Z,38.85
2019-05-25T05:12:51.219Z,39.17
2019-05-25T05:15:19.234Z,39.21
2019-05-25T05:17:47.283Z,39.40
2019-05-25T05:20:15.409Z,39.14
2019-05-25T05:22:43.523Z,39.14
2019-05-25T05:25:12.209Z,39.18
2019-05-25T05:27:40.389Z,38.91
2019-05-25T05:30:09.326Z,38.88
2019-05-25T05:32:37.370Z,38.77
2019-05-25T05:35:05.945Z,38.78
2019-05-25T05:37:33.902Z,38.40
2019-05-25T05:40:01.885Z,38.74
2019-05-25T05:42:29.860Z,38.78
2019-05-25T05:44:58.167Z,38.66
2019-05-25T05:47:26.694Z,38.88
2019-05-25T05:49:54.807Z,38.76
2019-05-25T05:52:22.914Z,38.36
2019-05-25T05:54:50.853Z,38.62
2019-05-25T05:57:18.768Z,38.68
2019-05-25T05:59:46.953Z,38.19
2019-05-25T06:02:14.864Z,38.43
2019-05-25T06:04:42.769Z,38.78
2019-05-25T06:07:10.781Z,38.67
2019-05-25T06:09:39.023Z,38.79
2019-05-25T06:12:07.149Z,38.62
2019-05-25T06:14:35.190Z,38.72
2019-05-25T06:17:03.209Z,38.66
2019-05-25T06:19:31.052Z,38.70
2019-05-25T06:21:59.159Z,38.59
2019-05-25T06:24:27.161Z,39.16
2019-05-25T06:26:55.386Z,38.95
2019-05-25T06:29:23.366Z,38.94
2019-05-25T06:31:51.619Z,37.97
2019-05-25T06:34:19.903Z,38.01
2019-05-25T06:36:47.871Z,38.11
2019-05-25T06:39:15.908Z,38.16
2019-05-25T06:41:43.818Z,38.70
2019-05-25T06:44:11.731Z,38.89
2019-05-25T06:46:39.950Z,38.89
2019-05-25T06:49:07.764Z,38.91
2019-05-25T06:51:35.779Z,38.94
2019-05-25T06:54:03.857Z,38.36
2019-05-25T06:56:32.110Z,38.72
2019-05-25T06:58:59.987Z,39.21
2019-05-25T07:01:27.947Z,39.03
2019-05-25T07:03:55.924Z,39.22
2019-05-25T07:06:24.185Z,39.02
2019-05-25T07:08:52.065Z,39.00
2019-05-25T07:11:19.949Z,39.30
2019-05-25T07:13:47.780Z,39.97
2019-05-25T07:16:15.928Z,39.91
2019-05-25T07:18:43.746Z,40.05
2019-05-25T07:21:11.633Z,40.03
2019-05-25T07:23:39.507Z,40.08
2019-05-25T07:26:07.517Z,40.11
2019-05-25T07:28:35.412Z,40.09
2019-05-25T07:31:03.329Z,40.07
2019-05-25T07:33:31.523Z,40.02
2019-05-25T07:35:59.559Z,40.15
2019-05-25T07:38:27.542Z,40.12
2019-05-25T07:40:55.544Z,40.18
2019-05-25T07:43:23.558Z,40.09
2019-05-25T07:45:51.366Z,40.03
2019-05-25T07:48:19.315Z,40.05
2019-05-25T07:50:47.322Z,40.00
2019-05-25T07:53:15.373Z,40.08
2019-05-25T07:55:43.359Z,39.44
2019-05-25T07:58:17.675Z,40.04
2019-05-25T08:00:41.170Z,39.99
2019-05-25T08:03:09.372Z,39.82
2019-05-25T08:05:37.328Z,39.82
2019-05-25T08:08:05.584Z,40.00
2019-05-25T08:10:33.728Z,40.08
2019-05-25T08:13:01.683Z,40.00
2019-05-25T08:15:29.452Z,39.83
2019-05-25T08:17:57.502Z,40.09
2019-05-25T08:20:25.284Z,40.07
2019-05-25T08:22:53.063Z,40.07
2019-05-25T08:25:20.946Z,39.62
2019-05-25T08:27:48.891Z,40.13
2019-05-25T08:30:16.674Z,39.68
2019-05-25T08:32:44.590Z,39.33
2019-05-25T08:35:12.828Z,39.68
2019-05-25T08:37:40.762Z,40.01
2019-05-25T08:40:08.622Z,38.96
2019-05-25T08:42:36.630Z,40.08
2019-05-25T08:45:05.143Z,39.84
2019-05-25T08:47:32.935Z,40.18
2019-05-25T08:50:00.850Z,39.64
2019-05-25T08:52:28.632Z,40.15
2019-05-25T08:54:56.861Z,40.12
2019-05-25T08:57:25.070Z,40.22
2019-05-25T08:59:53.137Z,39.87
2019-05-25T09:02:21.034Z,40.21
2019-05-25T09:04:49.244Z,39.55
2019-05-25T09:07:17.153Z,40.13
2019-05-25T09:09:45.445Z,39.88
2019-05-25T09:12:13.446Z,40.03
2019-05-25T09:14:41.470Z,39.48
2019-05-25T09:17:09.388Z,39.07
2019-05-25T09:19:37.351Z,39.11
2019-05-25T09:22:05.398Z,39.72
2019-05-25T09:24:33.410Z,40.24
2019-05-25T09:27:01.347Z,40.09
2019-05-25T09:29:29.258Z,40.21
2019-05-25T09:31:57.276Z,40.18
2019-05-25T09:34:25.316Z,40.10
2019-05-25T09:36:53.756Z,39.91
2019-05-25T09:39:21.989Z,40.07
2019-05-25T09:41:50.027Z,40.18
2019-05-25T09:44:18.119Z,40.04
2019-05-25T09:46:46.216Z,40.02
2019-05-25T09:49:14.348Z,38.54
2019-05-25T09:51:42.772Z,39.75
2019-05-25T09:54:10.727Z,40.01
2019-05-25T09:56:38.803Z,40.06
2019-05-25T09:59:19.190Z,39.95
2019-05-25T10:01:36.408Z,37.82
2019-05-25T10:04:04.531Z,40.02
2019-05-25T10:06:32.528Z,39.88
2019-05-25T10:09:00.703Z,39.94
2019-05-25T10:11:28.981Z,39.76
2019-05-25T10:13:57.137Z,39.98
2019-05-25T10:16:25.233Z,39.93
2019-05-25T10:18:53.253Z,40.02
2019-05-25T10:21:21.296Z,40.05
2019-05-25T10:23:49.495Z,39.90
2019-05-25T10:26:17.479Z,40.00
2019-05-25T10:28:45.684Z,39.81
2019-05-25T10:31:13.680Z,39.51
2019-05-25T10:33:41.798Z,39.93
2019-05-25T10:36:09.894Z,39.74
2019-05-25T10:38:37.947Z,39.84
2019-05-25T10:41:06.013Z,39.93
2019-05-25T10:43:34.206Z,39.98
2019-05-25T10:46:02.628Z,39.97
2019-05-25T10:48:30.512Z,39.90
2019-05-25T10:50:58.409Z,39.99
2019-05-25T10:53:26.445Z,39.97
2019-05-25T10:55:54.446Z,39.97
2019-05-25T10:58:22.483Z,40.04
2019-05-25T11:00:50.666Z,39.94
2019-05-25T11:03:18.700Z,39.97
2019-05-25T11:05:46.756Z,40.07
2019-05-25T11:08:14.839Z,39.99
2019-05-25T11:10:42.652Z,39.98
2019-05-25T11:13:10.652Z,39.91
2019-05-25T11:15:38.532Z,39.71
2019-05-25T11:18:07.143Z,39.65
2019-05-25T11:20:35.171Z,39.82
2019-05-25T11:23:03.149Z,39.74
2019-05-25T11:25:31.253Z,40.00
2019-05-25T11:27:59.262Z,39.97
2019-05-25T11:30:27.119Z,39.91
2019-05-25T11:32:55.008Z,39.90
2019-05-25T11:35:22.886Z,38.93
2019-05-25T11:37:50.710Z,40.00
2019-05-25T11:40:20.516Z,39.66
2019-05-25T11:42:48.380Z,38.72
2019-05-25T11:45:16.141Z,39.40
2019-05-25T11:47:43.943Z,39.77
2019-05-25T11:50:11.844Z,39.96
2019-05-25T11:52:40.354Z,40.02
2019-05-25T11:55:08.474Z,40.03
2019-05-25T11:57:36.482Z,38.85
2019-05-25T12:00:05.384Z,38.65
2019-05-25T12:02:33.288Z,39.60
2019-05-25T12:05:01.181Z,39.75
2019-05-25T12:07:29.102Z,39.84
2019-05-25T12:09:57.007Z,39.82
2019-05-25T12:12:25.108Z,39.91
2019-05-25T12:14:53.006Z,39.92
2019-05-25T12:17:21.216Z,39.96
2019-05-25T12:19:49.212Z,39.93
2019-05-25T12:22:36.290Z,39.92
2019-05-25T12:25:04.275Z,39.77
2019-05-25T12:27:32.150Z,39.86
2019-05-25T12:30:00.192Z,39.90
2019-05-25T12:32:28.092Z,39.92
2019-05-25T12:34:55.856Z,39.84
2019-05-25T12:37:23.639Z,39.87
2019-05-25T12:42:38.791Z,39.86
2019-05-25T12:45:07.038Z,39.78
2019-05-25T12:47:34.968Z,39.51
2019-05-25T12:50:02.858Z,39.58
2019-05-25T12:52:30.741Z,38.11
2019-05-25T12:55:17.836Z,39.62
2019-05-25T12:57:46.201Z,39.74
2019-05-25T13:00:16.173Z,39.71
2019-05-25T13:05:31.195Z,39.59
2019-05-25T13:07:47.239Z,39.63
2019-05-25T13:10:15.038Z,39.72
2019-05-25T13:12:42.797Z,39.59
2019-05-25T13:15:10.802Z,39.64
2019-05-25T13:20:12.745Z,39.68
2019-05-25T13:22:59.846Z,39.47
2019-05-25T13:25:46.912Z,38.68
2019-05-25T13:28:14.772Z,39.58
2019-05-25T13:30:42.849Z,37.89
2019-05-25T13:33:10.727Z,39.53
2019-05-25T13:35:38.538Z,39.28
2019-05-25T13:38:06.510Z,39.25
2019-05-25T13:40:34.814Z,39.06
2019-05-25T13:43:02.858Z,39.38
2019-05-25T13:48:17.888Z,38.03
2019-05-25T13:50:46.169Z,39.34
2019-05-25T13:53:14.170Z,39.36
2019-05-25T13:55:42.062Z,39.33
2019-05-25T13:58:28.870Z,39.32
2019-05-25T14:00:56.851Z,39.34
2019-05-25T14:03:24.867Z,39.39
2019-05-25T14:06:11.780Z,39.35
2019-05-25T14:08:40.122Z,39.43
2019-05-25T14:11:08.012Z,39.44
2019-05-25T14:13:55.011Z,39.43
2019-05-25T14:16:22.941Z,39.44
2019-05-25T14:18:50.942Z,39.47
2019-05-25T14:21:18.859Z,39.64
2019-05-25T14:26:20.416Z,39.48
2019-05-25T14:28:48.486Z,39.48
2019-05-25T14:31:45.148Z,39.61
2019-05-25T14:34:05.002Z,39.49
2019-05-25T14:36:32.994Z,39.49
2019-05-25T14:39:00.944Z,39.51
2019-05-25T14:41:28.805Z,39.23
2019-05-25T14:43:56.588Z,39.20
2019-05-25T14:46:27.681Z,39.39
2019-05-25T14:48:54.183Z,39.32
2019-05-25T14:54:09.025Z,38.82
2019-05-25T14:56:36.812Z,39.19
2019-05-25T14:59:04.648Z,39.35
2019-05-25T15:01:32.659Z,39.17
2019-05-25T15:04:00.545Z,39.31
2019-05-25T15:06:28.618Z,39.28
2019-05-25T15:08:56.593Z,39.30
2019-05-25T15:11:24.467Z,39.07
2019-05-25T15:13:52.340Z,39.15
2019-05-25T15:16:20.332Z,39.14
2019-05-25T15:18:48.180Z,39.22
2019-05-25T15:21:16.082Z,38.99
2019-05-25T15:23:44.066Z,39.22
2019-05-25T15:26:12.361Z,38.95
2019-05-25T15:28:40.312Z,38.98
2019-05-25T15:31:08.109Z,39.00
2019-05-25T15:33:35.972Z,38.86
2019-05-25T15:36:03.926Z,38.96
2019-05-25T15:38:31.923Z,38.90
2019-05-25T15:40:59.882Z,39.04
2019-05-25T15:43:27.794Z,38.54
2019-05-25T15:45:55.761Z,38.82
2019-05-25T15:48:26.280Z,38.75
2019-05-25T15:53:40.446Z,38.96
2019-05-25T15:56:08.548Z,38.96
2019-05-25T15:58:36.466Z,38.56
2019-05-25T16:01:04.564Z,38.84
2019-05-25T16:03:51.542Z,38.76
2019-05-25T16:06:19.475Z,38.82
2019-05-25T16:08:47.349Z,38.89
2019-05-25T16:11:15.703Z,38.54
2019-05-25T16:13:43.634Z,38.47
2019-05-25T16:16:11.490Z,38.70
2019-05-25T16:18:39.509Z,38.67
2019-05-25T16:21:07.530Z,38.59
2019-05-25T16:23:35.350Z,38.85
2019-05-25T16:26:03.275Z,38.77
2019-05-25T16:28:31.235Z,38.58
2019-05-25T16:30:59.242Z,38.07
2019-05-25T16:33:27.320Z,37.69
2019-05-25T16:35:57.854Z,38.22
2019-05-25T16:38:25.082Z,38.13
2019-05-25T16:40:53.143Z,38.86
2019-05-25T16:45:55.243Z,37.75
2019-05-25T16:48:23.582Z,37.70
2019-05-25T16:50:51.576Z,38.38
2019-05-25T16:53:19.490Z,38.33
2019-05-25T16:56:06.320Z,37.94
2019-05-25T16:58:34.170Z,38.00
2019-05-25T17:01:02.522Z,38.32
2019-05-25T17:06:05.736Z,38.65
2019-05-25T17:08:33.655Z,38.18
2019-05-25T17:11:01.736Z,38.52
2019-05-25T17:13:29.694Z,38.46
2019-05-25T17:15:57.558Z,38.47
2019-05-25T17:18:25.496Z,37.90
2019-05-25T17:20:53.362Z,38.30
2019-05-25T17:23:21.454Z,38.51
2019-05-25T17:25:49.829Z,38.57
2019-05-25T17:28:17.815Z,37.94
2019-05-25T17:30:46.112Z,38.25
2019-05-25T17:33:14.164Z,38.19
2019-05-25T17:35:42.156Z,38.01
2019-05-25T17:38:10.430Z,38.34
2019-05-25T17:40:38.800Z,38.08
2019-05-25T17:43:06.912Z,38.11
2019-05-25T17:45:35.065Z,38.44
2019-05-25T17:48:03.025Z,38.25
2019-05-25T17:50:31.063Z,38.15
2019-05-25T17:52:59.341Z,38.25
2019-05-25T17:55:27.460Z,38.22
2019-05-25T17:57:55.520Z,38.17
2019-05-25T18:00:54.108Z,38.20
2019-05-25T18:03:22.158Z,38.26
2019-05-25T18:05:50.073Z,38.07
2019-05-25T18:08:18.007Z,38.56
2019-05-25T18:13:33.134Z,38.30
2019-05-25T18:16:01.012Z,38.35
2019-05-25T18:18:28.888Z,37.99
2019-05-25T18:20:57.148Z,38.13
2019-05-25T18:23:25.042Z,38.08
2019-05-25T18:25:53.099Z,38.05
2019-05-25T18:28:21.067Z,38.25
2019-05-25T18:31:08.023Z,38.25
2019-05-25T18:33:36.029Z,38.27
2019-05-25T18:36:03.841Z,38.19
2019-05-25T18:38:50.653Z,38.31
2019-05-25T18:41:18.711Z,38.66
2019-05-25T18:43:46.728Z,38.28
2019-05-25T18:46:14.509Z,38.40
2019-05-25T18:48:42.786Z,38.41
2019-05-25T18:51:10.779Z,38.22
2019-05-25T18:53:38.809Z,38.41
2019-05-25T18:56:06.706Z,38.51
2019-05-25T18:58:34.693Z,38.43
2019-05-25T19:01:02.780Z,38.32
2019-05-25T19:03:30.579Z,38.12
2019-05-25T19:05:58.563Z,38.42
2019-05-25T19:08:26.328Z,38.69
2019-05-25T19:10:54.201Z,37.88
2019-05-25T19:13:22.395Z,38.16
2019-05-25T19:15:50.620Z,38.49
2019-05-25T19:18:18.669Z,38.11
2019-05-25T19:20:46.631Z,38.43
2019-05-25T19:23:33.470Z,38.42
2019-05-25T19:26:01.380Z,38.58
2019-05-25T19:28:29.668Z,38.61
2019-05-25T19:30:57.733Z,38.65
2019-05-25T19:33:25.725Z,38.74
2019-05-25T19:35:54.490Z,38.40
2019-05-25T19:41:10.679Z,38.51
2019-05-25T19:43:38.714Z,38.52
2019-05-25T19:46:25.658Z,38.63
2019-05-25T19:48:53.453Z,38.73
2019-05-25T19:51:21.424Z,38.69
2019-05-25T19:56:36.456Z,38.42
2019-05-25T19:59:23.529Z,38.25
2019-05-25T20:01:51.727Z,38.43
2019-05-25T20:04:19.860Z,38.58
2019-05-25T20:06:47.747Z,38.84
2019-05-25T20:09:15.756Z,38.19
2019-05-25T20:12:02.825Z,38.78
2019-05-25T20:17:18.123Z,38.55
2019-05-25T20:19:46.097Z,38.62
2019-05-25T20:22:14.001Z,38.83
2019-05-25T20:24:42.410Z,39.02
2019-05-25T20:27:10.419Z,38.95
2019-05-25T20:29:38.845Z,38.29
2019-05-25T20:32:06.894Z,38.81
2019-05-25T20:34:35.032Z,38.94
2019-05-25T20:37:03.021Z,39.13
2019-05-25T20:39:30.963Z,38.79
2019-05-25T20:41:58.952Z,38.92
2019-05-25T20:44:27.095Z,38.92
2019-05-25T20:46:55.253Z,39.10
2019-05-25T20:49:23.532Z,38.90
2019-05-25T20:57:14.442Z,39.25
2019-05-25T20:59:42.472Z,38.81
2019-05-25T21:02:10.598Z,38.62
2019-05-25T21:04:38.737Z,38.76
2019-05-25T21:07:07.131Z,38.79
2019-05-25T21:09:35.155Z,38.48
2019-05-25T21:12:22.191Z,38.83
2019-05-25T21:14:50.412Z,38.54
2019-05-25T21:17:18.605Z,38.88
2019-05-25T21:19:46.903Z,38.77
2019-05-25T21:22:14.894Z,38.74
2019-05-25T21:24:43.019Z,38.49
2019-05-25T21:27:11.141Z,38.60
2019-05-25T21:29:38.951Z,38.95
2019-05-25T21:32:06.920Z,38.50
2019-05-25T21:34:34.970Z,38.43
2019-05-25T21:37:02.984Z,38.82
2019-05-25T21:39:31.071Z,38.43
2019-05-25T21:41:58.914Z,38.66
2019-05-25T21:44:26.981Z,38.60
2019-05-25T21:46:55.122Z,38.25
2019-05-25T21:49:23.007Z,38.67
2019-05-25T21:51:51.013Z,38.56
2019-05-25T21:54:19.080Z,38.66
2019-05-25T21:56:47.200Z,38.69
2019-05-25T21:59:15.277Z,38.51
2019-05-25T22:04:16.671Z,38.91
2019-05-25T22:06:45.001Z,38.81
2019-05-25T22:09:13.364Z,39.07
2019-05-25T22:11:41.458Z,38.89
2019-05-25T22:14:09.574Z,39.14
2019-05-25T22:16:37.706Z,39.03
2019-05-25T22:19:05.588Z,38.72
2019-05-25T22:21:33.577Z,39.37
2019-05-25T22:24:01.638Z,38.98
2019-05-25T22:26:29.758Z,38.99
2019-05-25T22:28:57.744Z,39.03
2019-05-25T22:31:26.155Z,38.97
2019-05-25T22:36:39.583Z,39.18
2019-05-25T22:38:59.608Z,38.66
2019-05-25T22:41:27.682Z,38.62
2019-05-25T22:43:55.817Z,38.58
2019-05-25T22:46:23.906Z,39.08
2019-05-25T22:48:52.036Z,39.28
2019-05-25T22:51:20.091Z,39.23
2019-05-25T22:53:51.015Z,39.35
2019-05-25T22:56:19.470Z,39.03
2019-05-25T22:58:47.585Z,39.04
2019-05-25T23:01:15.724Z,39.20
2019-05-25T23:03:43.776Z,39.08
2019-05-25T23:06:11.856Z,39.02
2019-05-25T23:08:39.985Z,39.15
2019-05-25T23:11:08.365Z,38.82
2019-05-25T23:13:36.368Z,38.89
2019-05-25T23:16:04.447Z,39.32
2019-05-25T23:18:32.436Z,39.18
2019-05-25T23:21:00.571Z,39.28
2019-05-25T23:23:28.930Z,39.37
2019-05-25T23:25:57.002Z,39.08
2019-05-25T23:28:24.962Z,39.23
2019-05-25T23:30:52.930Z,39.20
2019-05-25T23:33:20.854Z,39.16
2019-05-25T23:35:48.870Z,39.12
2019-05-25T23:38:16.780Z,39.15
2019-05-25T23:40:44.711Z,39.38
2019-05-25T23:45:47.135Z,39.50
2019-05-25T23:48:15.532Z,39.34
2019-05-25T23:50:43.568Z,39.44
2019-05-25T23:53:30.718Z,39.32
2019-05-25T23:55:58.928Z,39.42
2019-05-25T23:58:26.818Z,39.51
